Relevés horaires Bierset (Belgique)


Relevés horaires à Bierset - Vendredi 27 Nov. 2020
Heure UTC1 Température [°C] Vent [km/h] Hum. [%] Pres.4 [hPa] Visi. [Km] Nébu. [octa] Préc.5 [mm] Cond.
2m. Res. Ros. Dir.2 Vit. Moy. Raf.3
23:00 7.4 7.4 4.7 E 1.9 3.7 11.1 83 1018.5(0.0/3h) 8 7/8 -- --
22:00 7.9 7.9 4.6 ESE 3.7 3.7 7.4 80 1018.4(0.2/3h) 8 7/8 -- --
21:00 6.0 6.0 5.3 NNO 1.9 5.6 11.1 95 1018.6(0.2/3h) 7 7/8 -- --
20:00 6.5 6.5 5.4 ENE 3.7 5.6 11.1 93 1018.5(0.0/3h) 6 7/8 -- --
19:00 7.2 7.2 5.6 ESE 1.9 3.7 11.1 90 1018.3(0.0/3h) 7 7/8 -- --
18:00 7.1 7.1 5.6 E 1.9 5.6 13.0 90 1018.3(-0.1/3h) 7 7/8 0/12h
--
17:00 7.4 6.6 5.9 ENE 5.6 5.6 13.0 90 1018.4(-0.3/3h) 6 7/8 -- --
16:00 7.6 6.8 6.1 NE 5.6 5.6 11.1 90 1018.3(-0.7/3h) 10 7/8 -- --
15:00 8.9 8.9 5.5 ESE 1.9 3.7 11.1 79 1018.3(-0.8/3h) 12 7/8 -- --
14:00 8.9 8.9 5.4 E 3.7 3.7 9.3 79 1018.6(-1.0/3h) 12 6/8 -- --
13:00 9.5 9.5 4.9 E 3.7 3.7 9.3 73 1018.8(-1.2/3h) 15 1/8 -- --
12:00 9.0 9.0 4.5 NNO 1.9 7.4 14.8 73 1019.2(-0.8/3h) 13 1/8 0/6h
--
11:00 7.8 7.8 4.5 SSE 1.9 3.7 11.1 80 1019.7(-0.3/3h) 11 1/8 -- --
10:00 6.2 6.2 4.0 SSE 1.9 3.7 7.4 86 1020.4(0.5/3h) 11 2/8 -- --
09:00 4.4 4.4 2.5 S 3.7 7.4 14.8 87 1020.3(0.5/3h) 10 4/8 -- --
08:00 3.5 2.1 2.3 SSE 5.6 7.4 14.8 92 1020.3(0.4/3h) 8 4/8 -- --
07:00 3.7 2.4 2.2 SSE 5.6 7.4 13.0 90 1020.1(-0.1/3h) 8 5/8 -- --
06:00 3.1 3.1 2.0 S 3.7 5.6 14.8 92 1020(-0.3/3h) 8 1/8 0/12h
--
05:00 4.0 4.0 2.5 S 3.7 5.6 14.8 90 1019.8(-0.5/3h) 9 3/8 -- --
04:00 4.8 3.6 3.1 SSE 5.6 5.6 13.0 89 1019.9(-0.3/3h) 10 3/8 -- --
03:00 4.7 3.5 3.0 SSE 5.6 5.6 14.8 89 1020.1(-0.4/3h) 10 5/8 -- --
02:00 4.8 3.6 3.3 SSE 5.6 5.6 7.4 90 1020.3(-0.4/3h) 10 7/8 -- --
01:00 5.2 5.2 3.4 SSE 3.7 5.6 14.8 88 1020.2(-0.5/3h) 15 5/8 -- --
00:00 5.5 4.4 3.6 SSE 5.6 7.4 13.0 88 1020.5(0.2/3h) 15 7/8 0/6h
0/24h
--

1 Coordinated Universal Time. Actuellement il est 02:00 locale et 00:00 UTC.

2 Le vent souffle depuis la direction indiquée vers la direction oposée.

3 Les rafales max. sont disponible 40 min après l'heure du relevé.

4 Pour les stations d'altitude (plus de 600m) le géopotentiel du niveau le plus proche de la pression obligatoire est indiqué.

5 Les stations disposant d'un diffuseur peuvent indiquer "trace". Cela signifie que des précipitations ont touchés le sol mais que la quantité est inférieure à 0.1 mm.

Récapitulatif de la journée
Température [°C] Vent [km/h] Ensoleillement4 [h] Precipitations totale5 [mm] Pression [Hpa]
Min1 Max.2 Moy.3 Max. Min Max.
3.1 9.5 5.3 14.8 0 h 0 min 0 1018.3 1020.5

1 Température minimale relevée entre 18:00 UTC la veille et 18:00 UTC le jour donné.

2 Température maximale relevée entre 06:00 UTC le jour donné et 06:00 UTC le lendemain.

3 Vent moyen de la journée basé sur les relevés horaires.

4 Ensoleillement en heures relevé entre 06:00 UTC la veille et 06:00 UTC le jour donné.

5 Précipitations totales tombées entre 06:00 UTC la jour donné et 06:00 UTC le lendemain.

Graphiques horaires